Time;durP1;ratioP1;P1;durP2;ratioP2;P2;SDS_P1;SDS_P2;PMS_P1;PMS_P2;Temp;Humidity;BMP_temperature;BMP_pressure;BME280_temperature;BME280_humidity;BME280_pressure;Samples;Min_cycle;Max_cycle;Signal;HPM_P1;HPM_P2
2021/07/03 00:00:51;;;;;;;8.45;7.65;;;20.40;66.20;;;;;;5015818;28;20235;-65
2021/07/03 00:03:17;;;;;;;9.23;7.65;;;20.40;66.20;;;;;;5016208;28;20184;-65
2021/07/03 00:05:42;;;;;;;8.13;7.32;;;20.40;66.20;;;;;;5016339;28;20627;-65
2021/07/03 00:08:07;;;;;;;8.27;7.35;;;20.40;66.20;;;;;;5015729;28;20183;-66
2021/07/03 00:10:33;;;;;;;8.57;7.55;;;20.40;66.20;;;;;;5015613;28;20259;-65
2021/07/03 00:12:59;;;;;;;7.63;6.90;;;20.40;66.20;;;;;;5016161;28;20627;-65
2021/07/03 00:15:24;;;;;;;7.57;6.88;;;20.40;66.20;;;;;;5016312;28;20219;-65
2021/07/03 00:18:05;;;;;;;7.65;6.95;;;20.40;66.20;;;;;;5015798;28;20259;-65
2021/07/03 00:20:30;;;;;;;7.25;6.60;;;20.40;66.50;;;;;;5015125;28;20172;-65
2021/07/03 00:22:56;;;;;;;8.38;7.47;;;20.40;66.10;;;;;;5015655;28;20670;-65
2021/07/03 00:25:22;;;;;;;7.70;7.00;;;20.40;66.10;;;;;;5016190;28;20180;-65
2021/07/03 00:27:47;;;;;;;8.45;7.05;;;20.40;66.20;;;;;;5015173;28;20272;-65
2021/07/03 00:30:13;;;;;;;7.82;7.05;;;20.40;66.10;;;;;;5015888;28;20196;-64
2021/07/03 00:32:39;;;;;;;7.70;7.00;;;20.40;66.00;;;;;;5015682;28;20205;-65
2021/07/03 00:35:05;;;;;;;8.02;7.05;;;20.40;66.00;;;;;;5015157;28;20177;-64
2021/07/03 00:37:31;;;;;;;7.55;6.82;;;20.30;66.00;;;;;;5015460;28;20180;-65
2021/07/03 00:39:56;;;;;;;8.38;7.47;;;20.30;66.00;;;;;;5015856;28;20250;-65
2021/07/03 00:42:24;;;;;;;8.05;7.35;;;20.30;65.90;;;;;;5014865;28;20216;-65
2021/07/03 00:44:50;;;;;;;7.05;6.40;;;20.40;66.00;;;;;;5015251;28;20246;-66
2021/07/03 00:47:15;;;;;;;7.20;6.60;;;20.30;65.90;;;;;;5015455;28;20177;-65
2021/07/03 00:49:41;;;;;;;7.95;7.00;;;20.30;65.90;;;;;;5014735;28;20566;-65
2021/07/03 00:52:10;;;;;;;7.85;7.05;;;20.30;65.90;;;;;;5015307;28;20176;-66
2021/07/03 00:54:36;;;;;;;7.55;6.85;;;20.30;65.90;;;;;;5015304;28;20230;-65
2021/07/03 00:57:03;;;;;;;7.47;6.68;;;20.30;66.00;;;;;;5014996;28;20196;-65
2021/07/03 00:59:43;;;;;;;7.47;6.78;;;20.30;65.90;;;;;;5015240;28;20179;-64
2021/07/03 01:02:09;;;;;;;7.85;6.60;;;20.30;65.90;;;;;;5014842;28;20200;-65
2021/07/03 01:04:35;;;;;;;7.05;6.43;;;20.30;65.90;;;;;;5015048;28;20211;-65
2021/07/03 01:07:02;;;;;;;7.40;6.70;;;20.30;65.80;;;;;;5014987;28;20666;-65
2021/07/03 01:09:28;;;;;;;7.07;6.38;;;20.30;65.90;;;;;;5014486;28;20267;-66
2021/07/03 01:11:53;;;;;;;6.85;6.22;;;20.30;65.80;;;;;;5014494;28;20315;-64
2021/07/03 01:14:19;;;;;;;7.13;6.43;;;20.30;65.80;;;;;;5015046;28;20226;-65
2021/07/03 01:16:45;;;;;;;7.00;6.38;;;20.30;65.90;;;;;;5014296;28;20665;-66
2021/07/03 01:19:11;;;;;;;7.00;6.30;;;20.30;65.90;;;;;;5014954;28;20502;-65
2021/07/03 01:21:36;;;;;;;7.47;6.18;;;20.30;65.90;;;;;;5014842;28;20694;-66
2021/07/03 01:24:02;;;;;;;6.97;6.38;;;20.30;66.20;;;;;;5014504;28;20307;-66
2021/07/03 01:26:38;;;;;;;7.00;6.30;;;20.30;65.90;;;;;;5014736;28;20192;-66
2021/07/03 01:29:03;;;;;;;7.47;6.32;;;20.30;65.80;;;;;;5014867;28;20179;-66
2021/07/03 01:31:29;;;;;;;6.95;6.25;;;20.20;65.80;;;;;;5014164;28;20185;-65
2021/07/03 01:33:54;;;;;;;7.90;6.25;;;20.30;65.90;;;;;;5014691;28;20384;-65
2021/07/03 01:36:20;;;;;;;6.75;6.05;;;20.30;65.80;;;;;;5014787;28;20176;-65
2021/07/03 01:38:45;;;;;;;7.40;6.63;;;20.20;65.70;;;;;;5013795;28;20176;-65
2021/07/03 01:41:11;;;;;;;7.07;6.38;;;20.20;65.70;;;;;;5014401;28;20662;-66
2021/07/03 01:43:37;;;;;;;6.65;5.97;;;20.20;65.80;;;;;;5013921;28;20196;-65
2021/07/03 01:46:02;;;;;;;6.63;6.03;;;20.20;65.70;;;;;;5013958;28;20179;-66
2021/07/03 01:48:31;;;;;;;6.95;6.28;;;20.20;65.80;;;;;;5014357;28;20183;-66
2021/07/03 01:50:56;;;;;;;7.25;6.55;;;20.20;65.70;;;;;;5014381;28;20181;-66
2021/07/03 01:53:22;;;;;;;8.20;6.80;;;20.20;65.70;;;;;;5014021;28;20176;-66
2021/07/03 01:55:49;;;;;;;6.78;6.18;;;20.20;65.70;;;;;;5013931;28;20176;-66
2021/07/03 01:58:24;;;;;;;6.63;6.10;;;20.20;65.70;;;;;;4996918;28;20556;-66
2021/07/03 02:00:55;;;;;;;6.88;6.25;;;20.20;66.50;;;;;;5013817;28;20180;-67
2021/07/03 02:03:21;;;;;;;7.60;6.22;;;20.20;65.70;;;;;;5014247;28;20220;-66
2021/07/03 02:05:47;;;;;;;7.03;6.32;;;20.20;65.70;;;;;;5013457;28;20577;-66
2021/07/03 02:08:12;;;;;;;7.47;6.65;;;20.20;65.60;;;;;;5013958;28;20184;-67
2021/07/03 02:10:38;;;;;;;6.60;5.95;;;20.20;65.60;;;;;;5013795;28;20224;-66
2021/07/03 02:13:04;;;;;;;8.23;7.00;;;20.20;65.70;;;;;;5013601;28;20239;-65
2021/07/03 02:15:29;;;;;;;6.90;6.20;;;20.20;65.70;;;;;;5013939;28;20173;-65
2021/07/03 02:17:55;;;;;;;7.10;6.40;;;20.20;65.70;;;;;;5012771;28;20567;-65
2021/07/03 02:20:20;;;;;;;7.25;6.55;;;20.20;65.60;;;;;;5013549;28;20184;-66
2021/07/03 02:22:46;;;;;;;6.63;5.95;;;20.20;65.60;;;;;;5012801;28;20200;-66
2021/07/03 02:25:12;;;;;;;7.30;6.70;;;20.10;65.50;;;;;;5013964;28;20176;-66
2021/07/03 02:27:37;;;;;;;7.15;6.47;;;20.10;65.50;;;;;;5012985;28;20538;-66
2021/07/03 02:30:05;;;;;;;7.07;6.38;;;20.10;65.50;;;;;;5013590;28;20181;-65
2021/07/03 02:32:31;;;;;;;7.07;6.38;;;20.10;65.50;;;;;;5013544;28;20176;-65
2021/07/03 02:34:56;;;;;;;7.07;6.45;;;20.10;65.50;;;;;;5013126;28;20175;-66
2021/07/03 02:37:22;;;;;;;6.88;6.18;;;20.10;66.30;;;;;;5013304;28;20546;-65
2021/07/03 02:39:47;;;;;;;7.85;7.03;;;20.10;65.50;;;;;;5013325;28;20534;-66
2021/07/03 02:42:13;;;;;;;6.97;6.28;;;20.20;65.60;;;;;;5012914;28;20580;-66
2021/07/03 02:44:38;;;;;;;6.72;6.13;;;20.10;65.60;;;;;;5013003;28;20181;-66
2021/07/03 02:47:04;;;;;;;7.30;6.60;;;20.10;65.50;;;;;;5013594;28;20184;-66
2021/07/03 02:49:29;;;;;;;6.78;6.18;;;20.10;65.50;;;;;;5012805;28;20183;-65
2021/07/03 02:52:01;;;;;;;6.80;6.15;;;20.10;65.40;;;;;;5013069;28;20204;-66
2021/07/03 02:54:27;;;;;;;7.30;6.60;;;20.10;65.40;;;;;;5013376;28;20231;-66
2021/07/03 02:56:57;;;;;;;7.80;7.05;;;20.10;65.50;;;;;;5012470;28;20208;-65
2021/07/03 02:59:25;;;;;;;8.40;6.90;;;20.10;65.40;;;;;;5013536;28;20182;-66
2021/07/03 03:01:51;;;;;;;7.57;6.68;;;20.10;65.40;;;;;;5012501;28;20290;-65
2021/07/03 03:04:17;;;;;;;7.15;6.43;;;20.10;65.50;;;;;;5013190;28;20339;-65
2021/07/03 03:06:42;;;;;;;6.93;6.22;;;20.10;65.40;;;;;;5013009;28;20542;-66
2021/07/03 03:09:08;;;;;;;7.13;6.47;;;20.10;65.40;;;;;;5012646;28;20722;-66
2021/07/03 03:11:34;;;;;;;7.05;6.32;;;20.10;65.50;;;;;;5012476;28;20231;-66
2021/07/03 03:13:59;;;;;;;7.70;6.90;;;20.10;65.40;;;;;;5013022;28;20168;-65
2021/07/03 03:16:26;;;;;;;7.00;6.38;;;20.10;65.40;;;;;;5012801;28;20223;-65
2021/07/03 03:18:52;;;;;;;7.57;6.88;;;20.10;65.50;;;;;;5012498;28;20665;-66
2021/07/03 03:21:18;;;;;;;7.50;6.80;;;20.10;65.40;;;;;;5013131;28;20173;-66
2021/07/03 03:23:43;;;;;;;7.97;7.18;;;20.10;65.40;;;;;;5012263;28;20180;-66
2021/07/03 03:26:08;;;;;;;6.93;6.30;;;20.10;65.40;;;;;;5012756;28;20534;-65
2021/07/03 03:28:34;;;;;;;7.40;6.70;;;20.10;65.40;;;;;;5012928;28;20184;-66
2021/07/03 03:31:00;;;;;;;7.40;6.70;;;20.10;65.40;;;;;;5012425;28;20200;-65
2021/07/03 03:33:25;;;;;;;7.28;6.65;;;20.10;65.40;;;;;;5014564;28;20176;-65
2021/07/03 03:35:50;;;;;;;7.60;6.88;;;20.10;65.40;;;;;;5016708;28;20180;-65
2021/07/03 03:38:16;;;;;;;7.50;6.72;;;20.10;65.40;;;;;;5016311;28;20180;-65
2021/07/03 03:40:42;;;;;;;7.50;6.75;;;20.10;65.30;;;;;;5016358;28;20176;-65
2021/07/03 03:43:11;;;;;;;8.30;7.18;;;20.10;65.20;;;;;;5016747;28;20621;-66
2021/07/03 03:45:37;;;;;;;8.02;7.25;;;20.10;65.30;;;;;;5016191;28;20179;-67
2021/07/03 03:48:04;;;;;;;8.13;7.32;;;20.10;65.20;;;;;;5016664;28;20180;-65
2021/07/03 03:50:30;;;;;;;8.40;6.68;;;20.00;65.10;;;;;;5016273;28;20264;-65
2021/07/03 03:52:55;;;;;;;8.60;7.38;;;20.10;65.10;;;;;;5016044;28;20259;-66
2021/07/03 03:55:21;;;;;;;7.22;6.53;;;20.10;65.10;;;;;;5016354;28;20230;-65
2021/07/03 03:57:46;;;;;;;8.75;7.85;;;20.10;65.10;;;;;;5016400;28;20188;-65
2021/07/03 04:00:12;;;;;;;7.97;7.18;;;20.10;65.10;;;;;;5015928;28;20180;-65
2021/07/03 04:02:38;;;;;;;8.75;7.20;;;20.10;65.00;;;;;;5016064;28;20212;-65
2021/07/03 04:05:04;;;;;;;8.40;7.60;;;20.10;64.90;;;;;;5015979;28;20207;-66
2021/07/03 04:07:29;;;;;;;8.63;7.82;;;20.10;65.00;;;;;;5015782;28;20172;-65
2021/07/03 04:09:55;;;;;;;8.07;7.28;;;20.10;64.90;;;;;;5016378;28;20250;-66
2021/07/03 04:12:20;;;;;;;8.10;7.30;;;20.10;64.90;;;;;;5015643;28;20624;-65
2021/07/03 04:14:46;;;;;;;8.50;7.63;;;20.10;64.90;;;;;;5015791;28;20541;-66
2021/07/03 04:17:11;;;;;;;8.25;7.38;;;20.10;64.80;;;;;;5016458;28;20177;-66
2021/07/03 04:19:37;;;;;;;7.97;7.28;;;20.10;64.80;;;;;;5015468;28;20180;-66
2021/07/03 04:22:03;;;;;;;8.07;7.25;;;20.10;64.70;;;;;;5015723;28;20259;-66
2021/07/03 04:24:28;;;;;;;8.35;7.38;;;20.10;64.70;;;;;;5016190;28;20650;-66
2021/07/03 04:26:54;;;;;;;8.32;7.53;;;20.10;64.70;;;;;;5015449;28;20211;-66
2021/07/03 04:29:19;;;;;;;8.40;7.55;;;20.10;64.70;;;;;;5015696;28;20213;-65
2021/07/03 04:31:45;;;;;;;7.55;6.72;;;20.10;64.70;;;;;;5015640;28;20242;-66
2021/07/03 04:34:10;;;;;;;8.25;7.10;;;20.10;64.70;;;;;;5015561;28;20655;-66
2021/07/03 04:36:36;;;;;;;7.93;7.10;;;20.10;64.70;;;;;;5015374;28;20181;-66
2021/07/03 04:39:02;;;;;;;7.72;6.97;;;20.10;65.50;;;;;;5015735;28;20203;-66
2021/07/03 04:41:28;;;;;;;9.65;8.25;;;20.10;64.70;;;;;;5015388;28;20238;-66
2021/07/03 04:43:54;;;;;;;7.82;7.13;;;20.10;64.80;;;;;;5015150;28;20546;-66
2021/07/03 04:46:19;;;;;;;8.00;7.13;;;20.10;64.80;;;;;;5015672;28;20176;-66
2021/07/03 04:48:45;;;;;;;7.50;6.80;;;20.10;64.80;;;;;;5015110;28;20258;-67
2021/07/03 04:51:10;;;;;;;8.50;7.70;;;20.10;64.90;;;;;;5015379;28;20169;-66
2021/07/03 04:53:36;;;;;;;8.60;6.90;;;20.10;64.90;;;;;;5015414;28;20176;-64
2021/07/03 04:56:01;;;;;;;8.05;7.15;;;20.10;64.90;;;;;;5015143;28;20259;-64
2021/07/03 04:58:27;;;;;;;8.25;7.45;;;20.10;64.90;;;;;;5015674;28;20541;-64
2021/07/03 05:00:52;;;;;;;8.02;7.22;;;20.10;64.90;;;;;;5014938;28;20557;-65
2021/07/03 05:03:18;;;;;;;9.32;7.60;;;20.10;64.90;;;;;;5014590;28;20254;-65
2021/07/03 05:05:43;;;;;;;7.68;6.90;;;20.10;64.90;;;;;;5015074;28;20208;-65
2021/07/03 05:08:09;;;;;;;7.85;7.05;;;20.10;64.80;;;;;;5015171;28;20287;-66
2021/07/03 05:10:34;;;;;;;7.53;6.82;;;20.10;64.80;;;;;;5013986;28;20912;-65
2021/07/03 05:13:00;;;;;;;7.00;6.30;;;20.10;64.80;;;;;;5015192;28;20184;-66
2021/07/03 05:15:27;;;;;;;8.27;7.10;;;20.10;64.80;;;;;;5014628;28;20207;-65
2021/07/03 05:17:52;;;;;;;7.10;6.38;;;20.10;64.90;;;;;;5014591;28;20596;-65
2021/07/03 05:20:18;;;;;;;7.75;6.95;;;20.10;64.90;;;;;;5014972;28;20650;-66
2021/07/03 05:22:43;;;;;;;8.00;7.20;;;20.10;65.00;;;;;;5014030;28;20208;-67
2021/07/03 05:25:10;;;;;;;6.72;6.13;;;20.10;64.90;;;;;;5015136;28;20537;-66
2021/07/03 05:27:35;;;;;;;7.90;7.10;;;20.10;64.90;;;;;;5015104;28;20189;-65
2021/07/03 05:30:01;;;;;;;7.43;6.72;;;20.10;65.00;;;;;;5014651;28;20176;-65
2021/07/03 05:32:27;;;;;;;7.30;6.65;;;20.10;64.90;;;;;;5015024;28;20176;-65
2021/07/03 05:34:52;;;;;;;8.05;7.25;;;20.10;64.90;;;;;;5014887;28;20173;-65
2021/07/03 05:37:18;;;;;;;7.10;6.40;;;20.10;64.80;;;;;;5014197;28;20172;-65
2021/07/03 05:39:43;;;;;;;6.38;5.78;;;20.10;64.80;;;;;;5014622;28;20649;-65
2021/07/03 05:42:09;;;;;;;7.10;6.40;;;20.20;65.00;;;;;;5015066;28;20212;-66
2021/07/03 05:44:34;;;;;;;7.15;6.45;;;20.10;65.70;;;;;;5014175;28;20169;-65
2021/07/03 05:47:00;;;;;;;7.40;6.13;;;20.10;64.90;;;;;;5014208;28;20203;-64
2021/07/03 05:49:25;;;;;;;7.45;6.75;;;20.10;64.90;;;;;;5014583;28;20196;-65
2021/07/03 05:51:51;;;;;;;7.72;6.55;;;20.10;64.90;;;;;;5014541;28;20173;-65
2021/07/03 05:54:16;;;;;;;7.22;6.53;;;20.10;64.90;;;;;;5015119;28;20701;-65
2021/07/03 05:56:42;;;;;;;6.70;5.97;;;20.10;64.90;;;;;;5014308;28;20187;-65
2021/07/03 05:59:07;;;;;;;7.38;6.68;;;20.10;64.90;;;;;;5014212;28;20173;-65
2021/07/03 06:01:33;;;;;;;6.95;6.22;;;20.10;64.90;;;;;;5014489;28;20235;-65
2021/07/03 06:03:58;;;;;;;6.70;6.07;;;20.20;64.90;;;;;;5015736;28;20204;-65
2021/07/03 06:06:24;;;;;;;6.72;5.82;;;20.20;64.90;;;;;;5013461;28;20719;-66
2021/07/03 06:08:50;;;;;;;6.47;5.88;;;20.20;64.90;;;;;;5014294;28;20176;-66
2021/07/03 06:11:15;;;;;;;7.10;6.40;;;20.20;64.80;;;;;;5014017;28;20232;-65
2021/07/03 06:13:41;;;;;;;7.13;6.38;;;20.20;64.80;;;;;;5012998;28;20627;-65
2021/07/03 06:16:07;;;;;;;6.60;6.00;;;20.30;64.80;;;;;;5014056;28;20184;-65
2021/07/03 06:18:51;;;;;;;5.85;5.35;;;20.30;64.80;;;;;;5069593;28;21112;-64
2021/07/03 06:21:17;;;;;;;6.65;6.05;;;20.30;64.80;;;;;;5070211;28;20175;-65
2021/07/03 06:23:42;;;;;;;6.22;5.63;;;20.30;64.70;;;;;;5070115;28;20171;-64
2021/07/03 06:26:08;;;;;;;6.57;5.90;;;20.30;64.70;;;;;;5069707;28;20171;-64
2021/07/03 06:28:33;;;;;;;5.93;5.43;;;20.30;64.70;;;;;;5069694;28;20178;-63
2021/07/03 06:30:59;;;;;;;7.07;6.40;;;20.30;64.80;;;;;;5070057;28;20174;-64
2021/07/03 06:33:24;;;;;;;6.20;5.60;;;20.30;64.80;;;;;;5069658;28;20189;-64
2021/07/03 06:35:50;;;;;;;6.28;5.70;;;20.30;64.80;;;;;;5069773;28;20171;-65
2021/07/03 06:38:16;;;;;;;6.28;5.68;;;20.30;64.80;;;;;;5070103;28;20435;-65
2021/07/03 06:40:44;;;;;;;6.38;5.78;;;20.30;64.90;;;;;;5069351;28;20689;-65
2021/07/03 06:43:10;;;;;;;6.05;5.45;;;20.30;64.90;;;;;;5069632;28;20316;-66
2021/07/03 06:45:35;;;;;;;6.20;5.60;;;20.30;64.90;;;;;;5069563;28;20652;-65
2021/07/03 06:48:01;;;;;;;7.07;6.38;;;20.30;64.90;;;;;;5069137;28;20181;-65
2021/07/03 06:50:27;;;;;;;6.10;5.57;;;20.30;64.80;;;;;;5069725;28;20248;-65
2021/07/03 06:52:55;;;;;;;5.47;5.07;;;20.40;64.90;;;;;;5069384;28;20185;-65
2021/07/03 06:55:21;;;;;;;6.13;5.35;;;20.40;64.90;;;;;;5069197;28;20181;-65
2021/07/03 06:57:47;;;;;;;5.68;5.18;;;20.40;64.90;;;;;;5068942;28;20652;-64
2021/07/03 07:00:13;;;;;;;6.50;5.90;;;20.40;64.90;;;;;;5069498;28;20236;-65
2021/07/03 07:02:38;;;;;;;5.65;5.15;;;20.40;64.90;;;;;;5068405;28;20636;-65
2021/07/03 07:05:06;;;;;;;5.55;5.05;;;20.40;65.00;;;;;;5069349;28;20167;-65
2021/07/03 07:07:32;;;;;;;5.72;5.22;;;20.40;64.90;;;;;;5069198;28;20262;-65
2021/07/03 07:09:57;;;;;;;6.07;5.47;;;20.40;64.90;;;;;;5068866;28;20209;-65
2021/07/03 07:12:23;;;;;;;5.05;4.65;;;20.40;65.00;;;;;;5069213;28;20179;-64
2021/07/03 07:14:48;;;;;;;5.72;5.22;;;20.40;64.90;;;;;;5068790;28;20167;-65
2021/07/03 07:17:14;;;;;;;6.10;5.60;;;20.40;64.90;;;;;;5068285;28;20593;-64
2021/07/03 07:19:39;;;;;;;5.60;5.10;;;20.40;64.80;;;;;;5068999;28;20498;-65
2021/07/03 07:22:05;;;;;;;5.38;4.88;;;20.50;64.90;;;;;;5068588;28;20265;-65
2021/07/03 07:24:30;;;;;;;4.95;4.55;;;20.40;64.80;;;;;;5067409;28;20257;-65
2021/07/03 07:26:56;;;;;;;5.68;5.18;;;20.50;64.80;;;;;;5069128;28;20170;-65
2021/07/03 07:29:21;;;;;;;5.50;5.00;;;20.50;64.80;;;;;;5060037;28;20171;-64
2021/07/03 07:31:49;;;;;;;5.22;4.72;;;20.50;64.70;;;;;;5055042;28;20609;-64
2021/07/03 07:34:14;;;;;;;5.15;4.65;;;20.50;64.70;;;;;;5055745;28;20175;-64
2021/07/03 07:36:40;;;;;;;5.28;4.78;;;20.50;64.70;;;;;;5054825;28;20321;-64
2021/07/03 07:39:05;;;;;;;5.00;4.60;;;20.50;64.70;;;;;;5055511;28;20175;-65
2021/07/03 07:41:31;;;;;;;5.18;4.78;;;20.60;64.70;;;;;;5055199;28;20174;-64
2021/07/03 07:43:56;;;;;;;5.30;4.80;;;20.60;64.70;;;;;;5054926;28;20179;-65
2021/07/03 07:46:22;;;;;;;5.63;4.65;;;20.60;64.60;;;;;;5055052;28;20170;-65
2021/07/03 07:48:47;;;;;;;5.22;4.72;;;20.60;64.60;;;;;;5055203;28;20171;-65
2021/07/03 07:51:13;;;;;;;4.93;4.53;;;20.60;64.70;;;;;;5054980;28;20206;-65
2021/07/03 07:53:38;;;;;;;5.32;4.82;;;20.60;64.60;;;;;;5054818;28;20213;-65
2021/07/03 07:56:04;;;;;;;5.38;4.88;;;20.60;64.60;;;;;;5055289;28;20259;-64
2021/07/03 07:58:30;;;;;;;5.45;4.95;;;20.60;64.60;;;;;;5054367;28;20211;-64
2021/07/03 08:00:55;;;;;;;5.90;4.90;;;20.60;64.70;;;;;;5054904;28;20171;-65
2021/07/03 08:03:21;;;;;;;5.70;5.20;;;20.70;64.70;;;;;;5055337;28;20231;-65
2021/07/03 08:05:47;;;;;;;4.90;4.50;;;20.70;64.70;;;;;;5054219;28;20271;-64
2021/07/03 08:08:12;;;;;;;5.65;4.90;;;20.70;64.70;;;;;;5055115;28;20203;-65
2021/07/03 08:10:39;;;;;;;4.85;4.45;;;20.70;64.70;;;;;;5054744;28;20218;-64
2021/07/03 08:13:05;;;;;;;5.70;5.20;;;20.70;64.90;;;;;;5054076;28;20640;-65
2021/07/03 08:15:31;;;;;;;5.32;4.88;;;20.80;64.90;;;;;;5054461;28;20174;-64
2021/07/03 08:18:00;;;;;;;5.95;5.30;;;20.70;64.80;;;;;;5054561;28;20689;-72
2021/07/03 08:20:25;;;;;;;5.93;5.00;;;20.80;65.00;;;;;;5054152;28;20183;-67
2021/07/03 08:22:52;;;;;;;5.43;4.95;;;20.80;65.10;;;;;;5054567;28;20225;-65
2021/07/03 08:25:18;;;;;;;6.55;4.72;;;20.80;65.00;;;;;;5054258;28;20172;-66
2021/07/03 08:27:43;;;;;;;5.95;5.38;;;20.80;65.10;;;;;;5054155;28;20232;-66
2021/07/03 08:30:11;;;;;;;6.60;5.25;;;20.80;65.10;;;;;;5054554;28;20258;-65
2021/07/03 08:32:37;;;;;;;6.18;5.57;;;20.80;65.10;;;;;;5053647;28;20171;-66
2021/07/03 08:35:04;;;;;;;6.88;5.43;;;20.90;65.10;;;;;;5054438;28;20192;-65
2021/07/03 08:37:29;;;;;;;6.57;5.60;;;20.90;65.20;;;;;;5054264;28;20211;-66
2021/07/03 08:39:55;;;;;;;6.13;5.45;;;20.90;65.20;;;;;;5053348;28;20167;-66
2021/07/03 08:42:20;;;;;;;6.25;5.32;;;20.90;65.20;;;;;;5053561;28;20182;-67
2021/07/03 08:44:47;;;;;;;6.53;5.93;;;20.90;65.20;;;;;;5053986;28;20167;-66
2021/07/03 08:47:13;;;;;;;7.55;6.43;;;20.90;65.20;;;;;;5053976;28;20182;-67
2021/07/03 08:49:40;;;;;;;6.43;5.80;;;20.90;65.80;;;;;;5053889;28;20205;-66
2021/07/03 08:52:05;;;;;;;6.45;5.60;;;21.00;65.90;;;;;;5054116;28;20622;-66
2021/07/03 08:54:31;;;;;;;6.28;5.45;;;21.10;66.10;;;;;;5053228;28;20190;-66
2021/07/03 08:57:00;;;;;;;6.60;5.63;;;21.00;65.20;;;;;;5053736;28;20288;-66
2021/07/03 08:59:26;;;;;;;6.55;5.30;;;21.10;65.50;;;;;;5053886;28;20187;-67
2021/07/03 09:01:53;;;;;;;7.05;5.55;;;21.10;65.40;;;;;;5052824;28;20588;-65
2021/07/03 09:04:31;;;;;;;7.10;5.45;;;21.10;65.30;;;;;;5054027;28;20175;-68
2021/07/03 09:06:56;;;;;;;7.03;6.05;;;21.10;65.40;;;;;;5054052;28;20253;-66
2021/07/03 09:09:25;;;;;;;6.75;6.07;;;21.10;65.40;;;;;;5053008;28;20704;-66
2021/07/03 09:11:53;;;;;;;10.52;6.10;;;21.10;65.60;;;;;;5053334;28;20583;-66
2021/07/03 09:14:27;;;;;;;7.82;5.82;;;21.20;65.60;;;;;;5053594;28;20621;-66
2021/07/03 09:16:56;;;;;;;6.75;5.35;;;21.20;65.60;;;;;;5051831;28;20211;-67
2021/07/03 09:19:28;;;;;;;8.05;6.28;;;21.10;65.60;;;;;;5053750;28;20207;-67
2021/07/03 09:21:54;;;;;;;8.45;6.63;;;21.20;65.60;;;;;;5052792;28;20172;-67
2021/07/03 09:24:20;;;;;;;8.23;6.38;;;21.20;65.60;;;;;;5053368;28;20178;-67
2021/07/03 09:27:02;;;;;;;7.15;6.45;;;21.20;65.60;;;;;;5053360;28;20163;-67
2021/07/03 09:29:27;;;;;;;7.60;6.82;;;21.20;65.60;;;;;;5053136;28;20210;-66
2021/07/03 09:31:53;;;;;;;7.53;6.00;;;21.20;65.70;;;;;;5051799;28;20179;-67
2021/07/03 09:34:20;;;;;;;8.65;7.05;;;21.30;65.70;;;;;;5053347;28;20168;-67
2021/07/03 09:36:46;;;;;;;9.18;6.18;;;21.30;66.70;;;;;;5052516;28;20301;-69
2021/07/03 09:39:19;;;;;;;7.05;5.95;;;21.30;65.80;;;;;;5052042;28;20217;-68
2021/07/03 09:41:45;;;;;;;7.47;5.88;;;21.40;65.80;;;;;;5051831;28;20530;-67
2021/07/03 09:44:11;;;;;;;10.05;6.43;;;21.40;65.80;;;;;;5052418;28;20183;-66
2021/07/03 09:46:41;;;;;;;9.05;6.28;;;21.40;65.90;;;;;;5052885;28;20171;-67
2021/07/03 09:49:08;;;;;;;6.50;5.85;;;21.40;65.90;;;;;;5053087;28;20233;-66
2021/07/03 09:51:41;;;;;;;7.95;6.18;;;21.40;66.00;;;;;;5051722;28;20175;-69
2021/07/03 09:54:10;;;;;;;8.35;6.20;;;21.40;65.80;;;;;;5053209;28;20186;-69
2021/07/03 09:56:36;;;;;;;9.52;6.25;;;21.40;65.80;;;;;;5052247;28;20305;-69
2021/07/03 09:59:02;;;;;;;7.35;6.63;;;21.40;65.80;;;;;;5052547;28;20190;-68
2021/07/03 10:01:28;;;;;;;8.57;6.47;;;21.50;65.80;;;;;;5052984;28;20171;-69
2021/07/03 10:03:54;;;;;;;7.63;6.10;;;21.40;65.70;;;;;;5052123;28;20194;-70
2021/07/03 10:06:26;;;;;;;7.57;5.93;;;21.50;65.70;;;;;;5052844;28;20213;-70
2021/07/03 10:08:57;;;;;;;8.18;6.13;;;21.50;65.80;;;;;;5051519;28;20224;-70
2021/07/03 10:11:24;;;;;;;6.88;6.15;;;21.50;65.70;;;;;;5051187;28;20175;-69
2021/07/03 10:13:52;;;;;;;8.63;6.85;;;21.50;65.70;;;;;;5051166;28;20633;-69
2021/07/03 10:16:21;;;;;;;8.00;6.43;;;21.50;65.60;;;;;;5051597;28;20262;-68
2021/07/03 10:18:46;;;;;;;8.82;6.43;;;21.50;65.60;;;;;;5051695;28;20234;-69
2021/07/03 10:21:13;;;;;;;7.03;6.35;;;21.50;65.60;;;;;;5051322;28;20675;-70
2021/07/03 10:23:44;;;;;;;6.68;5.97;;;21.50;65.60;;;;;;5052441;28;20262;-72
2021/07/03 10:26:10;;;;;;;8.50;6.20;;;21.60;65.60;;;;;;5052072;28;20167;-70
2021/07/03 10:28:36;;;;;;;7.97;6.65;;;21.60;65.50;;;;;;5052049;28;20270;-69
2021/07/03 10:31:12;;;;;;;9.73;6.57;;;21.60;65.50;;;;;;5052414;28;20688;-69
2021/07/03 10:33:49;;;;;;;7.50;6.70;;;21.60;65.40;;;;;;5051570;28;20266;-68
2021/07/03 10:36:27;;;;;;;7.68;6.53;;;21.60;65.40;;;;;;5052647;28;20174;-68
2021/07/03 10:38:53;;;;;;;7.80;6.90;;;21.60;65.40;;;;;;5051705;28;20309;-69
2021/07/03 10:41:22;;;;;;;8.48;7.57;;;21.60;65.30;;;;;;5052382;28;20638;-70
2021/07/03 10:43:59;;;;;;;8.60;7.45;;;21.60;65.30;;;;;;5052179;28;20262;-69
2021/07/03 10:46:29;;;;;;;7.68;6.90;;;21.70;65.30;;;;;;5052065;28;20175;-70
2021/07/03 10:48:59;;;;;;;8.52;6.60;;;21.70;65.40;;;;;;5052417;28;20186;-70
2021/07/03 10:51:39;;;;;;;7.30;6.60;;;21.70;65.30;;;;;;5052555;28;20175;-69
2021/07/03 10:54:06;;;;;;;7.47;6.72;;;21.70;65.30;;;;;;5052066;28;20257;-68
2021/07/03 10:56:41;;;;;;;7.25;6.55;;;21.70;65.20;;;;;;5052263;28;20179;-69
2021/07/03 10:59:11;;;;;;;11.05;7.18;;;21.70;65.20;;;;;;5052504;28;20222;-69
2021/07/03 11:01:36;;;;;;;7.63;6.88;;;21.70;65.40;;;;;;5051480;28;20179;-69
2021/07/03 11:04:15;;;;;;;9.45;6.97;;;21.80;65.40;;;;;;5053504;28;20179;-70
2021/07/03 11:06:48;;;;;;;7.32;6.63;;;21.80;65.20;;;;;;5056172;28;20201;-70
2021/07/03 11:09:26;;;;;;;7.50;6.80;;;21.70;65.10;;;;;;5055685;28;20183;-69
2021/07/03 11:11:52;;;;;;;8.05;7.25;;;21.70;65.30;;;;;;5055889;28;20175;-69
2021/07/03 11:14:22;;;;;;;8.73;7.53;;;21.70;65.20;;;;;;5055564;28;20182;-68
2021/07/03 11:16:57;;;;;;;7.05;6.35;;;21.70;65.20;;;;;;5055171;28;20626;-68
2021/07/03 11:19:27;;;;;;;7.32;6.57;;;21.70;66.20;;;;;;5059269;28;20257;-70
2021/07/03 11:22:07;;;;;;;7.90;7.05;;;21.80;65.20;;;;;;5059531;28;20683;-69
2021/07/03 11:24:45;;;;;;;7.97;6.63;;;21.80;65.10;;;;;;5062930;28;20189;-70
2021/07/03 11:27:12;;;;;;;7.05;6.32;;;21.80;65.00;;;;;;5061741;28;20206;-69
2021/07/03 11:29:37;;;;;;;9.50;7.38;;;21.90;65.10;;;;;;5074903;28;20186;-69
2021/07/03 11:32:05;;;;;;;7.72;6.68;;;21.80;65.10;;;;;;5064434;28;20179;-68
2021/07/03 11:34:31;;;;;;;7.55;6.50;;;21.80;65.00;;;;;;5035506;28;20654;-68
2021/07/03 11:36:56;;;;;;;8.45;7.28;;;21.80;65.00;;;;;;5034935;28;20326;-69
2021/07/03 11:39:22;;;;;;;7.30;6.60;;;21.80;65.10;;;;;;5035648;28;20642;-69
2021/07/03 11:41:47;;;;;;;9.45;6.47;;;21.80;65.40;;;;;;5035228;28;20164;-70
2021/07/03 11:44:13;;;;;;;7.07;6.35;;;21.80;65.10;;;;;;5034812;28;20510;-69
2021/07/03 11:46:38;;;;;;;7.93;7.00;;;21.90;64.90;;;;;;5035663;28;20172;-70
2021/07/03 11:49:04;;;;;;;7.10;5.75;;;21.90;64.80;;;;;;5035465;28;20215;-69
2021/07/03 11:51:29;;;;;;;6.95;6.35;;;21.90;64.70;;;;;;5034308;28;20172;-71
2021/07/03 11:53:55;;;;;;;7.78;6.97;;;21.80;64.80;;;;;;5035397;28;20180;-69
2021/07/03 11:56:22;;;;;;;8.23;6.55;;;21.80;64.90;;;;;;5034768;28;20176;-69
2021/07/03 11:58:49;;;;;;;7.80;6.65;;;21.90;64.90;;;;;;5034969;28;20212;-69
2021/07/03 12:01:17;;;;;;;9.45;6.82;;;21.90;64.50;;;;;;5035240;28;20180;-69
2021/07/03 12:03:43;;;;;;;9.82;7.30;;;22.00;64.40;;;;;;5033139;28;20573;-66
2021/07/03 12:06:09;;;;;;;9.75;6.82;;;22.00;64.40;;;;;;5035060;28;20176;-65
2021/07/03 12:08:39;;;;;;;9.38;7.13;;;21.90;64.60;;;;;;5034882;28;20175;-65
2021/07/03 12:11:06;;;;;;;10.15;7.55;;;21.90;64.70;;;;;;5034521;28;20180;-65
2021/07/03 12:13:36;;;;;;;8.82;6.65;;;21.80;64.70;;;;;;5034812;28;20254;-67
2021/07/03 12:16:02;;;;;;;8.70;6.85;;;21.90;64.80;;;;;;5034969;28;20176;-67
2021/07/03 12:18:38;;;;;;;8.38;6.90;;;21.90;64.80;;;;;;5034042;28;20318;-67
2021/07/03 12:21:06;;;;;;;8.32;6.47;;;22.00;64.50;;;;;;5034891;28;20210;-67
2021/07/03 12:23:32;;;;;;;7.45;6.65;;;22.10;64.40;;;;;;5034473;28;20187;-69
2021/07/03 12:25:57;;;;;;;8.13;7.05;;;22.10;64.40;;;;;;5034539;28;20171;-67
2021/07/03 12:28:23;;;;;;;8.00;7.28;;;22.00;64.50;;;;;;5034819;28;20180;-67
2021/07/03 12:30:48;;;;;;;10.38;6.85;;;22.10;64.50;;;;;;5034514;28;20176;-67
2021/07/03 12:33:14;;;;;;;7.90;7.10;;;22.20;64.40;;;;;;5034076;28;20172;-65
2021/07/03 12:35:47;;;;;;;9.70;7.68;;;22.20;64.00;;;;;;5033107;28;20222;-68
2021/07/03 12:38:13;;;;;;;7.78;6.97;;;22.20;63.80;;;;;;5034476;28;20670;-67
2021/07/03 12:40:40;;;;;;;8.43;7.63;;;22.20;63.90;;;;;;5033672;28;20183;-67
2021/07/03 12:43:06;;;;;;;8.30;7.50;;;22.20;63.90;;;;;;5034606;28;20233;-67